Eland, WI

3:33 PM CDT on July 27, 2016 (GMT -0500)
Wittenberg Wi. | | Change Station

Elev 1191 ft 44.83 °N, 89.17 °W | Updated 16 seconds ago

Partly Cloudy
Partly Cloudy
79.3 °F
Feels Like 82 °F
N
0.0
Wind Variable Wind from South
Gusts 0.0 mph

Today
High -- | Low -- °F
--% Chance of Precip.
Yesterday
High -- | Low -- °F
Precip. -- in
Pressure 29.97 in
Visibility 10.0 miles
Clouds Few 12000 ft
Heat Index 82 °F
Dew Point 70 °F
Humidity 73%
Rainfall 0.18 in
Snow Depth Not available.
5:37 AM 8:28 PM
Last Quarter, 40% visible
METAR KAUW 271954Z AUTO 00000KT 10SM FEW120 25/20 A2998 RMK AO2 SLP148 T02500200
Pressure 29.97 in
Visibility 10.0 miles
Clouds Few 12000 ft
Heat Index 82 °F
Dew Point 70 °F
Humidity 73%
Rainfall 0.18 in
Snow Depth Not available.
5:37 AM 8:28 PM
Last Quarter, 40% visible
METAR KAUW 271954Z AUTO 00000KT 10SM FEW120 25/20 A2998 RMK AO2 SLP148 T02500200

10-Day Weather Forecast

Almanac

Astronomy

Jul. 27, 2016 Rise Set
Actual Time
Civil Twilight
Nautical Twilight
Astronomical Twilight
Moon
Length of Visible Light
Length of Day
Tomorrow will be .
, % of the Moon is Illuminated

Today's Extremes

State Highs State Lows

Community

WunderPhotos

Upload Photos

1,927,933 photos uploaded!

WunderBlog® & News

Nearby

Air Quality

  Air Quality AQ Index Pollutant
Not available.

Snow Depth

Station Depth Elevation

Earthquake Activity

City Distance Mag. Time & Date
Minimum magnitude displayed is 2.5.

Coastal Water Temperatures

Place Temperature

Stations

Nearby Weather Stations

Station Location Temp. Windchill Dew Point Humidity Wind Precip. Elev Updated Type
                   

Watches & Warnings

There are currently no watches in effect.